Time;durP1;ratioP1;P1;durP2;ratioP2;P2;SDS_P1;SDS_P2;PMS_P1;PMS_P2;Temp;Humidity;BMP_temperature;BMP_pressure;BME280_temperature;BME280_humidity;BME280_pressure;Samples;Min_cycle;Max_cycle;Signal;HPM_P1;HPM_P2
2023/11/03 00:00:49;;;;;;;3.05;0.50;;;;;;;;;;4947858;28;20030;-76
2023/11/03 00:03:15;;;;;;;1.10;0.50;;;;;;;;;;4961330;28;20031;-76
2023/11/03 00:05:41;;;;;;;1.63;0.45;;;;;;;;;;4959958;28;20117;-77
2023/11/03 00:08:08;;;;;;;1.92;0.57;;;;;;;;;;4961689;28;20027;-77
2023/11/03 00:10:36;;;;;;;2.75;0.60;;;;;;;;;;4959562;28;20108;-77
2023/11/03 00:13:02;;;;;;;1.30;0.50;;;;;;;;;;4959075;28;20030;-77
2023/11/03 00:15:27;;;;;;;1.15;0.50;;;;;;;;;;4943529;28;20514;-77
2023/11/03 00:17:53;;;;;;;1.75;0.75;;;;;;;;;;4945017;28;20392;-77
2023/11/03 00:20:19;;;;;;;3.75;0.93;;;;;;;;;;4963880;28;20089;-77
2023/11/03 00:22:45;;;;;;;2.40;0.60;;;;;;;;;;4948381;28;20027;-77
2023/11/03 00:25:13;;;;;;;2.85;0.70;;;;;;;;;;4952125;28;20377;-78
2023/11/03 00:27:38;;;;;;;2.63;0.60;;;;;;;;;;4947755;28;20114;-77
2023/11/03 00:30:07;;;;;;;0.93;0.50;;;;;;;;;;4965620;28;20125;-77
2023/11/03 00:32:33;;;;;;;1.70;0.50;;;;;;;;;;4965054;28;20023;-77
2023/11/03 00:34:59;;;;;;;2.65;0.80;;;;;;;;;;4965899;28;20026;-77
2023/11/03 00:37:25;;;;;;;1.50;0.70;;;;;;;;;;4964650;28;20433;-77
2023/11/03 00:39:51;;;;;;;2.05;0.50;;;;;;;;;;4966466;28;20035;-77
2023/11/03 00:42:17;;;;;;;1.92;0.60;;;;;;;;;;4964776;28;20459;-77
2023/11/03 00:44:42;;;;;;;1.92;0.40;;;;;;;;;;4964330;28;20110;-77
2023/11/03 00:47:08;;;;;;;2.58;0.60;;;;;;;;;;4965111;28;20035;-77
2023/11/03 00:49:37;;;;;;;1.42;0.40;;;;;;;;;;4966251;28;20431;-77
2023/11/03 00:52:04;;;;;;;1.15;0.50;;;;;;;;;;4965004;28;20041;-77
2023/11/03 00:54:29;;;;;;;1.23;0.50;;;;;;;;;;4970897;28;20105;-77
2023/11/03 00:56:55;;;;;;;3.00;0.80;;;;;;;;;;4931171;28;20125;-77
2023/11/03 00:59:21;;;;;;;1.52;0.50;;;;;;;;;;4967437;28;20018;-77
2023/11/03 01:01:47;;;;;;;0.88;0.50;;;;;;;;;;4966249;28;20040;-77
2023/11/03 01:04:12;;;;;;;1.60;0.60;;;;;;;;;;4968230;28;20069;-77
2023/11/03 01:06:39;;;;;;;3.80;0.55;;;;;;;;;;4960058;28;20113;-77
2023/11/03 01:09:04;;;;;;;1.50;0.40;;;;;;;;;;4963668;28;20027;-77
2023/11/03 01:11:30;;;;;;;1.88;0.60;;;;;;;;;;4960987;28;20475;-77
2023/11/03 01:13:56;;;;;;;2.75;0.77;;;;;;;;;;4944946;28;20030;-77
2023/11/03 01:16:25;;;;;;;1.17;0.47;;;;;;;;;;4964448;28;20035;-77
2023/11/03 01:18:51;;;;;;;2.05;0.40;;;;;;;;;;4966103;28;20030;-77
2023/11/03 01:21:18;;;;;;;1.60;0.50;;;;;;;;;;4950103;28;20049;-77
2023/11/03 01:23:47;;;;;;;0.68;0.47;;;;;;;;;;4967449;28;20027;-77
2023/11/03 01:26:13;;;;;;;1.25;0.55;;;;;;;;;;4953762;28;20118;-77
2023/11/03 01:28:39;;;;;;;2.03;0.60;;;;;;;;;;4952090;28;20034;-77
2023/11/03 01:31:05;;;;;;;2.33;0.50;;;;;;;;;;4970017;28;20038;-77
2023/11/03 01:33:31;;;;;;;1.50;0.47;;;;;;;;;;4950592;28;20038;-77
2023/11/03 01:35:57;;;;;;;1.50;0.60;;;;;;;;;;4949547;28;20026;-77
2023/11/03 01:38:23;;;;;;;3.47;0.57;;;;;;;;;;4951866;28;20038;-77
2023/11/03 01:40:49;;;;;;;2.67;0.50;;;;;;;;;;4965164;28;20031;-77
2023/11/03 01:43:14;;;;;;;1.65;0.40;;;;;;;;;;4966116;28;20435;-77
2023/11/03 01:45:39;;;;;;;4.22;0.80;;;;;;;;;;4966241;28;20035;-77
2023/11/03 01:48:06;;;;;;;3.35;0.65;;;;;;;;;;4965666;28;20030;-77
2023/11/03 01:50:32;;;;;;;1.95;0.57;;;;;;;;;;4966243;28;20225;-77
2023/11/03 01:52:57;;;;;;;3.38;0.50;;;;;;;;;;4980941;28;20031;-77
2023/11/03 01:55:23;;;;;;;1.10;0.47;;;;;;;;;;4952331;28;20484;-77
2023/11/03 01:57:50;;;;;;;1.60;0.50;;;;;;;;;;4967412;28;20038;-77
2023/11/03 02:00:16;;;;;;;1.63;0.60;;;;;;;;;;4949280;28;20504;-77
2023/11/03 02:02:43;;;;;;;1.42;0.50;;;;;;;;;;4968552;28;20015;-77
2023/11/03 02:05:10;;;;;;;2.63;0.40;;;;;;;;;;4971528;28;20488;-77
2023/11/03 02:07:35;;;;;;;1.45;0.50;;;;;;;;;;4974631;28;20034;-77
2023/11/03 02:10:06;;;;;;;1.50;0.60;;;;;;;;;;4952899;28;20034;-77
2023/11/03 02:12:32;;;;;;;3.00;0.60;;;;;;;;;;4967814;28;20061;-77
2023/11/03 02:14:57;;;;;;;2.88;0.50;;;;;;;;;;4967450;28;20050;-77
2023/11/03 02:17:23;;;;;;;1.23;0.50;;;;;;;;;;4951874;28;20031;-77
2023/11/03 02:19:48;;;;;;;2.45;0.60;;;;;;;;;;4950386;28;20492;-77
2023/11/03 02:22:14;;;;;;;2.17;0.60;;;;;;;;;;4951801;28;20023;-77
2023/11/03 02:24:39;;;;;;;2.20;0.65;;;;;;;;;;4966788;28;20066;-77
2023/11/03 02:27:05;;;;;;;3.13;0.60;;;;;;;;;;4955079;28;20037;-77
2023/11/03 02:29:31;;;;;;;1.80;0.40;;;;;;;;;;4971169;28;20392;-77
2023/11/03 02:31:57;;;;;;;3.65;0.63;;;;;;;;;;4967187;28;20461;-77
2023/11/03 02:34:22;;;;;;;2.67;0.60;;;;;;;;;;4949546;28;20031;-77
2023/11/03 02:36:48;;;;;;;2.20;0.70;;;;;;;;;;4966673;28;20030;-77
2023/11/03 02:39:14;;;;;;;2.80;0.60;;;;;;;;;;4966182;28;20030;-77
2023/11/03 02:41:40;;;;;;;2.65;0.60;;;;;;;;;;4969424;28;20037;-77
2023/11/03 02:44:05;;;;;;;3.67;0.80;;;;;;;;;;4967924;28;20035;-77
2023/11/03 02:46:31;;;;;;;4.47;0.68;;;;;;;;;;4967640;28;20033;-77
2023/11/03 02:48:57;;;;;;;3.75;0.60;;;;;;;;;;4957463;28;20070;-77
2023/11/03 02:51:22;;;;;;;1.95;0.57;;;;;;;;;;4976252;28;20031;-77
2023/11/03 02:53:48;;;;;;;4.53;1.13;;;;;;;;;;4971482;28;20031;-77
2023/11/03 02:56:24;;;;;;;2.53;0.68;;;;;;;;;;4972028;28;20030;-77
2023/11/03 02:58:49;;;;;;;2.22;0.75;;;;;;;;;;4974644;28;20036;-78
2023/11/03 03:01:15;;;;;;;3.25;0.90;;;;;;;;;;4960799;28;20470;-77
2023/11/03 03:03:41;;;;;;;3.58;0.90;;;;;;;;;;4954746;28;20034;-77
2023/11/03 03:06:08;;;;;;;3.72;0.70;;;;;;;;;;4972336;28;20030;-77
2023/11/03 03:08:33;;;;;;;5.13;0.80;;;;;;;;;;4958089;28;20027;-77
2023/11/03 03:11:00;;;;;;;3.05;0.90;;;;;;;;;;4954929;28;20039;-77
2023/11/03 03:13:26;;;;;;;3.47;0.80;;;;;;;;;;4961523;28;20030;-78
2023/11/03 03:15:51;;;;;;;2.90;0.73;;;;;;;;;;4969821;28;20369;-78
2023/11/03 03:18:16;;;;;;;3.55;1.17;;;;;;;;;;4949924;28;20385;-77
2023/11/03 03:20:42;;;;;;;3.05;0.90;;;;;;;;;;4949124;28;20492;-76
2023/11/03 03:23:07;;;;;;;2.55;0.70;;;;;;;;;;4967589;28;20023;-78
2023/11/03 03:25:34;;;;;;;2.78;0.73;;;;;;;;;;4967945;28;20087;-78
2023/11/03 03:27:59;;;;;;;2.95;0.80;;;;;;;;;;4967616;28;20046;-78
2023/11/03 03:30:25;;;;;;;4.38;0.93;;;;;;;;;;4951798;28;20065;-77
2023/11/03 03:32:50;;;;;;;1.90;0.80;;;;;;;;;;4964615;28;20023;-77
2023/11/03 03:35:15;;;;;;;2.38;0.93;;;;;;;;;;4966383;28;20034;-77
2023/11/03 03:37:41;;;;;;;2.60;1.13;;;;;;;;;;4981351;28;20495;-78
2023/11/03 03:40:07;;;;;;;4.18;1.20;;;;;;;;;;4948112;28;20174;-77
2023/11/03 03:42:32;;;;;;;2.78;0.85;;;;;;;;;;4963815;28;20023;-77
2023/11/03 03:44:57;;;;;;;5.45;1.00;;;;;;;;;;4964556;28;20089;-78
2023/11/03 03:47:23;;;;;;;2.42;0.95;;;;;;;;;;4970419;28;20034;-77
2023/11/03 03:49:48;;;;;;;3.83;1.02;;;;;;;;;;4971981;28;20039;-77
2023/11/03 03:52:14;;;;;;;3.72;1.10;;;;;;;;;;4977377;28;20039;-77
2023/11/03 03:54:39;;;;;;;4.18;1.10;;;;;;;;;;4953120;28;20035;-77
2023/11/03 03:57:05;;;;;;;2.35;0.85;;;;;;;;;;4971002;28;20105;-77
2023/11/03 03:59:31;;;;;;;4.90;1.00;;;;;;;;;;4954327;28;20022;-77
2023/11/03 04:01:57;;;;;;;6.88;1.15;;;;;;;;;;4975660;28;20018;-77
2023/11/03 04:04:22;;;;;;;4.45;1.10;;;;;;;;;;4953881;28;20034;-77
2023/11/03 04:06:47;;;;;;;4.95;1.30;;;;;;;;;;4970915;28;20441;-77
2023/11/03 04:09:13;;;;;;;5.10;1.30;;;;;;;;;;4970220;28;20081;-77
2023/11/03 04:11:39;;;;;;;2.65;1.10;;;;;;;;;;4970198;28;20049;-77
2023/11/03 04:14:05;;;;;;;6.40;1.00;;;;;;;;;;4954263;28;20023;-77
2023/11/03 04:16:35;;;;;;;4.22;1.20;;;;;;;;;;4981345;28;20451;-77
2023/11/03 04:19:01;;;;;;;4.47;1.27;;;;;;;;;;4964205;28;20876;-77
2023/11/03 04:21:27;;;;;;;2.78;0.80;;;;;;;;;;4946045;28;20023;-77
2023/11/03 04:23:52;;;;;;;4.40;1.10;;;;;;;;;;4979295;28;20079;-77
2023/11/03 04:26:18;;;;;;;3.92;0.93;;;;;;;;;;4962589;28;20034;-76
2023/11/03 04:28:43;;;;;;;3.88;1.65;;;;;;;;;;4966008;28;20065;-77
2023/11/03 04:31:08;;;;;;;3.97;1.00;;;;;;;;;;4964431;28;20047;-77
2023/11/03 04:33:34;;;;;;;5.30;1.17;;;;;;;;;;4964472;28;20503;-77
2023/11/03 04:36:00;;;;;;;4.68;1.20;;;;;;;;;;4965884;28;20030;-77
2023/11/03 04:38:25;;;;;;;5.05;1.00;;;;;;;;;;4962239;28;20029;-77
2023/11/03 04:40:51;;;;;;;4.10;1.02;;;;;;;;;;4964611;28;20372;-77
2023/11/03 04:43:16;;;;;;;5.07;1.27;;;;;;;;;;4966001;28;20059;-77
2023/11/03 04:45:42;;;;;;;4.95;1.10;;;;;;;;;;4964604;28;20031;-77
2023/11/03 04:48:07;;;;;;;3.53;1.33;;;;;;;;;;4942559;28;20113;-77
2023/11/03 04:50:33;;;;;;;5.68;1.35;;;;;;;;;;4969563;28;20045;-77
2023/11/03 04:52:58;;;;;;;7.18;1.45;;;;;;;;;;4968333;28;20045;-77
2023/11/03 04:55:24;;;;;;;4.53;1.30;;;;;;;;;;4979027;28;20077;-78
2023/11/03 04:57:49;;;;;;;4.72;1.10;;;;;;;;;;4965080;28;20384;-77
2023/11/03 05:00:14;;;;;;;4.55;1.27;;;;;;;;;;4951708;28;20027;-78
2023/11/03 05:02:40;;;;;;;4.50;1.15;;;;;;;;;;4955879;28;20027;-78
2023/11/03 05:05:06;;;;;;;7.22;1.40;;;;;;;;;;4966602;28;20957;-77
2023/11/03 05:07:33;;;;;;;4.32;1.10;;;;;;;;;;4966828;28;20041;-77
2023/11/03 05:09:58;;;;;;;6.05;1.13;;;;;;;;;;4961868;28;20283;-77
2023/11/03 05:12:24;;;;;;;3.80;1.38;;;;;;;;;;4947285;28;20029;-77
2023/11/03 05:14:50;;;;;;;4.65;1.15;;;;;;;;;;4965543;28;20049;-77
2023/11/03 05:17:15;;;;;;;3.42;1.00;;;;;;;;;;4964989;28;20054;-77
2023/11/03 05:19:41;;;;;;;8.43;1.45;;;;;;;;;;4963663;28;20078;-78
2023/11/03 05:22:06;;;;;;;5.47;1.40;;;;;;;;;;4961998;28;20400;-78
2023/11/03 05:24:32;;;;;;;6.28;1.42;;;;;;;;;;4961075;28;20047;-77
2023/11/03 05:26:57;;;;;;;6.72;1.75;;;;;;;;;;4943411;28;20023;-77
2023/11/03 05:29:23;;;;;;;3.78;1.13;;;;;;;;;;4964218;28;20614;-78
2023/11/03 05:31:53;;;;;;;5.60;1.33;;;;;;;;;;4975116;28;20034;-78
2023/11/03 05:34:19;;;;;;;4.03;1.20;;;;;;;;;;4962883;28;20027;-77
2023/11/03 05:36:45;;;;;;;6.70;1.80;;;;;;;;;;4946946;28;20061;-77
2023/11/03 05:39:12;;;;;;;7.53;1.83;;;;;;;;;;4961830;28;20041;-77
2023/11/03 05:41:38;;;;;;;4.35;1.25;;;;;;;;;;4977253;28;20031;-77
2023/11/03 05:44:03;;;;;;;4.68;1.15;;;;;;;;;;4964063;28;20050;-78
2023/11/03 05:46:28;;;;;;;8.00;1.20;;;;;;;;;;4943916;28;20034;-77
2023/11/03 05:48:54;;;;;;;3.72;1.10;;;;;;;;;;4939535;28;20495;-77
2023/11/03 05:51:23;;;;;;;7.05;1.55;;;;;;;;;;4961525;28;21470;-77
2023/11/03 05:53:49;;;;;;;4.10;1.42;;;;;;;;;;4963534;28;20117;-77
2023/11/03 05:56:15;;;;;;;5.97;1.30;;;;;;;;;;4940884;28;20515;-77
2023/11/03 05:58:41;;;;;;;5.35;1.30;;;;;;;;;;4947359;28;20978;-77
2023/11/03 06:01:07;;;;;;;6.07;1.20;;;;;;;;;;4962654;28;20967;-77
2023/11/03 06:03:33;;;;;;;4.28;1.10;;;;;;;;;;4954730;28;20027;-77
2023/11/03 06:05:59;;;;;;;5.40;1.52;;;;;;;;;;4966621;28;20042;-77
2023/11/03 06:08:24;;;;;;;3.55;1.20;;;;;;;;;;4967161;28;20089;-77
2023/11/03 06:10:50;;;;;;;4.18;1.10;;;;;;;;;;4973274;28;20077;-77
2023/11/03 06:13:16;;;;;;;3.28;1.10;;;;;;;;;;4972121;28;20042;-77
2023/11/03 06:15:42;;;;;;;4.30;1.00;;;;;;;;;;4974882;28;20026;-77
2023/11/03 06:18:07;;;;;;;6.97;1.33;;;;;;;;;;4970386;28;20706;-77
2023/11/03 06:20:33;;;;;;;5.60;1.30;;;;;;;;;;4970097;28;20037;-77
2023/11/03 06:22:58;;;;;;;6.45;1.23;;;;;;;;;;4965478;28;20464;-78
2023/11/03 06:25:23;;;;;;;5.13;1.15;;;;;;;;;;4956402;28;20062;-77
2023/11/03 06:27:49;;;;;;;6.95;1.30;;;;;;;;;;4982525;28;20456;-78
2023/11/03 06:30:14;;;;;;;3.72;0.88;;;;;;;;;;4949268;28;20058;-78
2023/11/03 06:32:40;;;;;;;6.13;1.13;;;;;;;;;;4964160;28;20030;-77
2023/11/03 06:35:05;;;;;;;4.35;0.90;;;;;;;;;;4967390;28;20039;-77
2023/11/03 06:37:30;;;;;;;7.97;1.48;;;;;;;;;;4966364;28;20022;-78
2023/11/03 06:39:56;;;;;;;8.07;1.40;;;;;;;;;;4965645;28;20081;-78
2023/11/03 06:42:22;;;;;;;4.35;1.10;;;;;;;;;;4949633;28;20039;-77
2023/11/03 06:44:47;;;;;;;4.22;1.05;;;;;;;;;;4962646;28;20026;-77
2023/11/03 06:47:12;;;;;;;3.90;1.10;;;;;;;;;;4944955;28;20089;-78
2023/11/03 06:49:38;;;;;;;6.00;1.02;;;;;;;;;;4960287;28;20547;-77
2023/11/03 06:52:03;;;;;;;6.28;0.90;;;;;;;;;;4946612;28;20058;-78
2023/11/03 06:54:29;;;;;;;4.55;1.05;;;;;;;;;;4946492;28;20038;-77
2023/11/03 06:56:54;;;;;;;5.63;1.15;;;;;;;;;;4968412;28;20110;-77
2023/11/03 06:59:19;;;;;;;7.60;1.67;;;;;;;;;;4966571;28;20536;-77
2023/11/03 07:01:46;;;;;;;7.10;1.15;;;;;;;;;;4948961;28;20097;-77
2023/11/03 07:04:14;;;;;;;5.93;1.23;;;;;;;;;;4969549;28;20031;-77
2023/11/03 07:06:39;;;;;;;4.95;0.90;;;;;;;;;;4954306;28;20033;-77
2023/11/03 07:09:05;;;;;;;4.97;0.90;;;;;;;;;;4967675;28;20031;-77
2023/11/03 07:11:30;;;;;;;4.68;1.08;;;;;;;;;;4967566;28;20034;-77
2023/11/03 07:13:56;;;;;;;6.80;1.50;;;;;;;;;;4952661;28;20065;-77
2023/11/03 07:16:22;;;;;;;4.28;0.90;;;;;;;;;;4961184;28;20077;-77
2023/11/03 07:18:47;;;;;;;5.55;1.17;;;;;;;;;;4962747;28;20026;-78
2023/11/03 07:21:13;;;;;;;9.55;1.10;;;;;;;;;;4949709;28;20035;-77
2023/11/03 07:23:39;;;;;;;7.70;1.15;;;;;;;;;;4967521;28;20034;-77
2023/11/03 07:26:04;;;;;;;7.50;1.30;;;;;;;;;;4968836;28;20050;-77
2023/11/03 07:28:30;;;;;;;7.35;1.27;;;;;;;;;;4972274;28;21726;-77
2023/11/03 07:30:56;;;;;;;9.95;1.30;;;;;;;;;;4954017;28;20022;-77
2023/11/03 07:33:21;;;;;;;7.85;1.42;;;;;;;;;;4969840;28;20396;-77
2023/11/03 07:35:47;;;;;;;6.65;1.33;;;;;;;;;;4954077;28;20476;-77
2023/11/03 07:38:13;;;;;;;9.95;1.27;;;;;;;;;;4973369;28;20073;-77
2023/11/03 07:40:39;;;;;;;5.05;1.10;;;;;;;;;;4972770;28;20035;-76
2023/11/03 07:43:06;;;;;;;5.82;1.00;;;;;;;;;;4972471;28;20046;-77
2023/11/03 07:45:33;;;;;;;6.22;1.00;;;;;;;;;;4970182;28;20034;-77
2023/11/03 07:47:59;;;;;;;6.78;1.08;;;;;;;;;;4970278;28;20035;-77
2023/11/03 07:50:25;;;;;;;6.15;1.00;;;;;;;;;;4971075;28;20062;-77
2023/11/03 07:52:50;;;;;;;5.20;1.00;;;;;;;;;;4969491;28;20437;-77
2023/11/03 07:55:16;;;;;;;7.93;1.40;;;;;;;;;;4967612;28;20081;-77
2023/11/03 07:57:44;;;;;;;4.90;1.15;;;;;;;;;;4953941;28;20109;-77
2023/11/03 08:00:12;;;;;;;7.53;1.10;;;;;;;;;;4946435;28;20074;-77
2023/11/03 08:02:39;;;;;;;7.30;1.35;;;;;;;;;;4964117;28;20059;-77
2023/11/03 08:05:07;;;;;;;4.28;0.98;;;;;;;;;;4968926;28;20492;-77
2023/11/03 08:07:36;;;;;;;5.45;1.27;;;;;;;;;;4960208;28;20057;-76
2023/11/03 08:10:05;;;;;;;9.23;1.20;;;;;;;;;;4956641;28;20022;-77
2023/11/03 08:12:33;;;;;;;7.38;0.98;;;;;;;;;;4971091;28;20030;-77
2023/11/03 08:14:59;;;;;;;7.53;1.02;;;;;;;;;;4974418;28;20609;-77
2023/11/03 08:17:24;;;;;;;7.68;1.20;;;;;;;;;;4973760;28;20161;-77
2023/11/03 08:19:50;;;;;;;6.60;1.02;;;;;;;;;;4972346;28;20080;-77
2023/11/03 08:22:16;;;;;;;7.75;1.13;;;;;;;;;;4954785;28;20041;-77
2023/11/03 08:24:41;;;;;;;6.50;1.50;;;;;;;;;;4977071;28;20030;-77
2023/11/03 08:27:09;;;;;;;6.47;1.45;;;;;;;;;;4971449;28;20030;-77
2023/11/03 08:29:34;;;;;;;8.73;1.58;;;;;;;;;;4972447;28;20055;-77
2023/11/03 08:31:59;;;;;;;7.75;1.42;;;;;;;;;;4967765;28;20508;-77
2023/11/03 08:34:25;;;;;;;11.73;1.60;;;;;;;;;;4967745;28;20022;-77
2023/11/03 08:36:50;;;;;;;9.40;1.48;;;;;;;;;;4973960;28;20026;-77
2023/11/03 08:39:17;;;;;;;4.95;1.15;;;;;;;;;;4974111;28;20424;-77
2023/11/03 08:41:42;;;;;;;7.47;1.33;;;;;;;;;;4955486;28;20034;-77
2023/11/03 08:44:08;;;;;;;10.32;1.30;;;;;;;;;;4970517;28;20034;-77
2023/11/03 08:46:34;;;;;;;12.63;1.38;;;;;;;;;;4954608;28;20126;-77
2023/11/03 08:49:00;;;;;;;8.13;1.20;;;;;;;;;;4969869;28;20069;-77
2023/11/03 08:51:27;;;;;;;7.63;1.40;;;;;;;;;;4954772;28;20034;-77
2023/11/03 08:53:53;;;;;;;10.90;1.67;;;;;;;;;;4966495;28;20109;-77
2023/11/03 08:56:20;;;;;;;8.15;1.48;;;;;;;;;;4952583;28;20105;-77
2023/11/03 08:58:45;;;;;;;8.02;1.58;;;;;;;;;;4972744;28;20031;-76
2023/11/03 09:01:11;;;;;;;6.85;1.25;;;;;;;;;;4970424;28;20369;-77
2023/11/03 09:03:36;;;;;;;6.82;1.35;;;;;;;;;;4971228;28;20026;-77
2023/11/03 09:06:03;;;;;;;4.97;1.00;;;;;;;;;;4951213;28;20037;-77
2023/11/03 09:08:29;;;;;;;9.20;1.30;;;;;;;;;;4974947;28;20058;-77
2023/11/03 09:10:54;;;;;;;7.20;1.42;;;;;;;;;;4955707;28;20064;-78
2023/11/03 09:13:19;;;;;;;7.22;1.30;;;;;;;;;;4970345;28;20050;-77
2023/11/03 09:15:45;;;;;;;5.78;1.23;;;;;;;;;;4969240;28;20125;-77
2023/11/03 09:18:11;;;;;;;6.63;1.48;;;;;;;;;;4968065;28;20485;-78
2023/11/03 09:20:38;;;;;;;10.00;1.67;;;;;;;;;;4951588;28;20479;-78
2023/11/03 09:23:03;;;;;;;9.13;1.38;;;;;;;;;;4959101;28;20037;-77
2023/11/03 09:25:30;;;;;;;8.32;1.55;;;;;;;;;;4962577;28;20034;-77
2023/11/03 09:27:56;;;;;;;8.32;1.50;;;;;;;;;;4959195;28;20039;-77
2023/11/03 09:30:22;;;;;;;9.82;1.48;;;;;;;;;;4972799;28;20026;-77
2023/11/03 09:32:48;;;;;;;5.72;1.20;;;;;;;;;;4950936;28;20031;-77
2023/11/03 09:35:15;;;;;;;6.63;1.00;;;;;;;;;;4966624;28;20570;-78
2023/11/03 09:37:41;;;;;;;5.78;1.17;;;;;;;;;;4963930;28;20122;-78
2023/11/03 09:40:07;;;;;;;8.93;1.40;;;;;;;;;;4961613;28;20114;-78
2023/11/03 09:42:33;;;;;;;6.05;1.23;;;;;;;;;;4968702;28;20105;-78
2023/11/03 09:44:59;;;;;;;6.15;1.10;;;;;;;;;;4952952;28;20026;-78
2023/11/03 09:47:28;;;;;;;8.00;1.50;;;;;;;;;;4969285;28;20583;-77
2023/11/03 09:49:58;;;;;;;6.55;1.10;;;;;;;;;;4951930;28;20387;-78
2023/11/03 09:52:24;;;;;;;7.10;1.63;;;;;;;;;;4954563;28;20830;-78
2023/11/03 09:54:50;;;;;;;7.55;1.25;;;;;;;;;;4977175;28;20034;-78
2023/11/03 09:57:16;;;;;;;8.60;1.67;;;;;;;;;;4970508;28;20477;-78
2023/11/03 09:59:41;;;;;;;5.65;1.20;;;;;;;;;;4959874;28;20031;-78
2023/11/03 10:02:11;;;;;;;7.75;1.30;;;;;;;;;;4967949;28;20121;-77
2023/11/03 10:04:41;;;;;;;7.60;1.70;;;;;;;;;;4970378;28;20544;-77
2023/11/03 10:07:10;;;;;;;5.57;1.27;;;;;;;;;;4972775;28;20393;-78
2023/11/03 10:09:36;;;;;;;8.35;1.60;;;;;;;;;;4966917;28;20034;-78
2023/11/03 10:12:03;;;;;;;5.63;1.30;;;;;;;;;;4968670;28;20039;-77
2023/11/03 10:14:30;;;;;;;12.75;1.88;;;;;;;;;;4971276;28;20159;-78
2023/11/03 10:16:58;;;;;;;10.05;1.23;;;;;;;;;;4974688;28;20035;-78
2023/11/03 10:19:25;;;;;;;6.93;1.73;;;;;;;;;;4954735;28;20045;-77
2023/11/03 10:21:51;;;;;;;6.93;1.90;;;;;;;;;;4974792;28;20062;-78
2023/11/03 10:24:16;;;;;;;8.30;1.52;;;;;;;;;;4954263;28;20110;-78
2023/11/03 10:26:42;;;;;;;6.93;2.28;;;;;;;;;;4965438;28;20039;-78
2023/11/03 10:29:07;;;;;;;9.13;1.52;;;;;;;;;;4945140;28;20109;-78
2023/11/03 10:31:33;;;;;;;10.32;1.80;;;;;;;;;;4976229;28;20030;-78
2023/11/03 10:33:58;;;;;;;7.03;1.50;;;;;;;;;;4972530;28;20093;-78
2023/11/03 10:36:25;;;;;;;7.72;1.90;;;;;;;;;;4975586;28;20103;-78
2023/11/03 10:38:51;;;;;;;8.23;1.88;;;;;;;;;;4954590;28;20027;-78
2023/11/03 10:41:18;;;;;;;4.07;1.35;;;;;;;;;;4973345;28;20034;-78
2023/11/03 10:43:47;;;;;;;7.93;1.58;;;;;;;;;;4947590;28;20122;-78
2023/11/03 10:46:25;;;;;;;7.57;1.70;;;;;;;;;;4966893;28;20529;-78
2023/11/03 10:49:04;;;;;;;7.68;1.65;;;;;;;;;;4949439;28;20058;-78
2023/11/03 10:51:32;;;;;;;8.45;1.40;;;;;;;;;;4956105;28;20034;-78
2023/11/03 10:54:03;;;;;;;8.30;1.60;;;;;;;;;;4946399;28;20444;-78
2023/11/03 10:56:29;;;;;;;10.07;1.90;;;;;;;;;;4957433;28;20105;-78
2023/11/03 10:58:56;;;;;;;7.30;2.15;;;;;;;;;;4963099;28;21125;-78
2023/11/03 11:01:27;;;;;;;9.48;1.88;;;;;;;;;;4963985;28;20128;-78
2023/11/03 11:04:14;;;;;;;8.45;1.77;;;;;;;;;;4967796;28;20061;-78
2023/11/03 11:06:46;;;;;;;5.15;1.75;;;;;;;;;;4955391;28;20506;-78
2023/11/03 11:09:20;;;;;;;5.78;1.52;;;;;;;;;;4962824;28;20046;-79
2023/11/03 11:11:46;;;;;;;9.30;2.10;;;;;;;;;;4963736;28;20155;-79
2023/11/03 11:14:24;;;;;;;4.82;1.98;;;;;;;;;;4967451;28;20040;-78
2023/11/03 11:16:58;;;;;;;8.32;1.88;;;;;;;;;;4966053;28;20571;-78
2023/11/03 11:19:50;;;;;;;8.43;2.00;;;;;;;;;;4954107;28;20780;-79
2023/11/03 11:22:18;;;;;;;8.25;1.60;;;;;;;;;;4953124;28;20166;-77
2023/11/03 11:24:45;;;;;;;7.78;1.83;;;;;;;;;;4949017;28;20679;-78
2023/11/03 11:27:22;;;;;;;6.60;1.48;;;;;;;;;;4950442;28;20035;-78
2023/11/03 11:29:50;;;;;;;6.45;1.50;;;;;;;;;;4969035;28;20654;-79
2023/11/03 11:32:17;;;;;;;8.85;1.60;;;;;;;;;;4972873;28;20034;-78
2023/11/03 11:34:44;;;;;;;7.50;1.42;;;;;;;;;;4949673;28;20022;-78
2023/11/03 11:37:28;;;;;;;9.93;1.50;;;;;;;;;;4966952;28;20042;-78
2023/11/03 11:40:03;;;;;;;6.60;1.20;;;;;;;;;;4965553;28;20039;-78
2023/11/03 11:42:31;;;;;;;6.95;1.50;;;;;;;;;;4965421;28;20369;-78
2023/11/03 11:44:59;;;;;;;5.88;1.45;;;;;;;;;;4964506;28;20482;-78
2023/11/03 11:47:27;;;;;;;7.35;1.40;;;;;;;;;;4966782;28;20042;-79
2023/11/03 11:49:54;;;;;;;10.75;1.35;;;;;;;;;;4969228;28;20038;-78
2023/11/03 11:52:29;;;;;;;6.15;1.30;;;;;;;;;;4966722;28;20054;-78
2023/11/03 11:54:55;;;;;;;9.05;1.35;;;;;;;;;;4965234;28;20026;-78
2023/11/03 11:57:24;;;;;;;5.90;1.10;;;;;;;;;;4965247;28;20034;-78
2023/11/03 11:59:51;;;;;;;7.65;1.17;;;;;;;;;;4953517;28;20382;-78
2023/11/03 12:02:20;;;;;;;8.27;1.20;;;;;;;;;;4964182;28;20027;-78
2023/11/03 12:04:50;;;;;;;9.30;1.33;;;;;;;;;;4967439;28;20030;-78
2023/11/03 12:07:20;;;;;;;6.50;1.50;;;;;;;;;;4948923;28;20026;-78
2023/11/03 12:09:45;;;;;;;8.05;1.55;;;;;;;;;;4950566;28;20576;-78
2023/11/03 12:12:11;;;;;;;7.45;1.20;;;;;;;;;;4951532;28;20034;-78
2023/11/03 12:14:37;;;;;;;4.85;1.10;;;;;;;;;;4963905;28;20034;-78
2023/11/03 12:17:03;;;;;;;8.00;1.40;;;;;;;;;;4962151;28;20122;-78
2023/11/03 12:19:30;;;;;;;7.72;1.23;;;;;;;;;;4962074;28;20133;-78
2023/11/03 12:21:55;;;;;;;13.23;2.88;;;;;;;;;;4966171;28;20026;-78
2023/11/03 12:24:22;;;;;;;7.45;1.10;;;;;;;;;;4953743;28;20039;-78
2023/11/03 12:26:48;;;;;;;7.97;1.25;;;;;;;;;;4965583;28;20117;-78
2023/11/03 12:29:29;;;;;;;10.45;1.30;;;;;;;;;;4967170;28;20035;-79
2023/11/03 12:32:05;;;;;;;8.23;1.40;;;;;;;;;;4945231;28;20023;-79
2023/11/03 12:34:30;;;;;;;5.07;1.20;;;;;;;;;;4949777;28;20046;-80
2023/11/03 12:36:57;;;;;;;8.57;1.30;;;;;;;;;;4968167;28;20031;-79
2023/11/03 12:39:23;;;;;;;5.90;1.58;;;;;;;;;;4968197;28;20531;-80
2023/11/03 12:42:07;;;;;;;7.20;1.50;;;;;;;;;;4950971;28;20030;-79
2023/11/03 12:45:00;;;;;;;7.35;1.20;;;;;;;;;;4966472;28;20040;-79
2023/11/03 12:47:44;;;;;;;6.57;1.30;;;;;;;;;;4953646;28;20046;-79
2023/11/03 12:50:19;;;;;;;6.43;1.33;;;;;;;;;;4966077;28;20121;-80
2023/11/03 12:52:46;;;;;;;7.95;1.70;;;;;;;;;;4946838;28;20078;-79
2023/11/03 12:55:17;;;;;;;8.23;1.55;;;;;;;;;;4961477;28;20030;-79
2023/11/03 12:57:43;;;;;;;6.38;1.30;;;;;;;;;;4971161;28;20033;-79
2023/11/03 13:00:15;;;;;;;6.57;1.40;;;;;;;;;;4946288;28;20043;-80
2023/11/03 13:02:45;;;;;;;6.67;1.50;;;;;;;;;;4966583;28;20035;-80
2023/11/03 13:05:10;;;;;;;7.20;1.42;;;;;;;;;;4951024;28;20146;-78
2023/11/03 13:07:38;;;;;;;6.78;1.10;;;;;;;;;;4965453;28;20125;-77
2023/11/03 13:10:05;;;;;;;8.85;1.50;;;;;;;;;;4948986;28;20100;-77
2023/11/03 13:12:30;;;;;;;7.60;1.60;;;;;;;;;;4948391;28;20034;-77
2023/11/03 13:14:56;;;;;;;5.90;1.52;;;;;;;;;;4967478;28;20034;-77
2023/11/03 13:17:21;;;;;;;6.35;1.33;;;;;;;;;;4963232;28;20680;-77
2023/11/03 13:19:47;;;;;;;9.20;1.60;;;;;;;;;;4949243;28;20325;-77
2023/11/03 13:22:14;;;;;;;8.27;1.85;;;;;;;;;;4965116;28;20150;-77
2023/11/03 13:24:43;;;;;;;7.75;1.30;;;;;;;;;;4972898;28;20202;-77
2023/11/03 13:27:08;;;;;;;4.28;1.15;;;;;;;;;;4953689;28;20061;-77
2023/11/03 13:29:33;;;;;;;7.13;1.10;;;;;;;;;;4966864;28;20078;-77
2023/11/03 13:31:59;;;;;;;4.95;0.93;;;;;;;;;;4959039;28;20031;-77
2023/11/03 13:34:24;;;;;;;6.93;1.20;;;;;;;;;;4953590;28;20039;-77
2023/11/03 13:36:49;;;;;;;7.47;0.95;;;;;;;;;;4957815;28;20295;-77
2023/11/03 13:39:15;;;;;;;5.57;1.08;;;;;;;;;;4948162;28;20038;-77
2023/11/03 13:41:44;;;;;;;5.18;1.00;;;;;;;;;;4973022;28;20125;-77
2023/11/03 13:44:09;;;;;;;5.68;0.90;;;;;;;;;;4951993;28;20133;-77
2023/11/03 13:46:36;;;;;;;7.47;1.20;;;;;;;;;;4933551;28;20036;-77
2023/11/03 13:49:03;;;;;;;5.00;1.30;;;;;;;;;;4946025;28;20583;-77
2023/11/03 13:51:29;;;;;;;8.38;1.40;;;;;;;;;;4965596;28;20034;-78
2023/11/03 13:53:56;;;;;;;7.10;1.58;;;;;;;;;;4948419;28;20023;-77
2023/11/03 13:56:22;;;;;;;8.13;1.40;;;;;;;;;;4967305;28;20085;-77
2023/11/03 13:58:48;;;;;;;8.85;1.02;;;;;;;;;;4969203;28;20026;-78
2023/11/03 14:01:13;;;;;;;3.60;0.80;;;;;;;;;;4965359;28;20419;-77
2023/11/03 14:03:39;;;;;;;6.95;1.20;;;;;;;;;;4963637;28;20030;-77
2023/11/03 14:06:07;;;;;;;8.48;1.73;;;;;;;;;;4950425;28;20446;-77
2023/11/03 14:08:33;;;;;;;7.13;1.33;;;;;;;;;;4964137;28;20030;-77
2023/11/03 14:11:05;;;;;;;6.57;1.08;;;;;;;;;;4944617;28;20571;-77
2023/11/03 14:13:33;;;;;;;4.80;1.00;;;;;;;;;;4950447;28;20523;-77
2023/11/03 14:16:00;;;;;;;6.38;1.27;;;;;;;;;;4965810;28;20065;-79
2023/11/03 14:18:26;;;;;;;6.60;1.33;;;;;;;;;;4947791;28;20031;-79
2023/11/03 14:20:57;;;;;;;4.38;1.05;;;;;;;;;;4951193;28;20026;-79
2023/11/03 14:23:25;;;;;;;5.00;0.95;;;;;;;;;;4968912;28;20520;-79
2023/11/03 14:25:50;;;;;;;4.55;1.05;;;;;;;;;;4969953;28;20816;-79
2023/11/03 14:28:16;;;;;;;5.55;0.95;;;;;;;;;;4962790;28;20034;-79
2023/11/03 14:30:41;;;;;;;6.70;1.35;;;;;;;;;;4966649;28;20033;-79
2023/11/03 14:33:07;;;;;;;6.70;1.05;;;;;;;;;;4967292;28;20035;-79
2023/11/03 14:35:33;;;;;;;4.53;1.02;;;;;;;;;;4956684;28;20499;-79
2023/11/03 14:37:59;;;;;;;3.65;0.77;;;;;;;;;;4949952;28;20029;-80
2023/11/03 14:40:24;;;;;;;8.70;0.98;;;;;;;;;;4966323;28;20057;-79